Time;durP1;ratioP1;P1;durP2;ratioP2;P2;SDS_P1;SDS_P2;PMS_P1;PMS_P2;Temp;Humidity;BMP_temperature;BMP_pressure;BME280_temperature;BME280_humidity;BME280_pressure;Samples;Min_cycle;Max_cycle;Signal;HPM_P1;HPM_P2
2023/04/07 00:00:35;;;;;;;20.05;18.02;;;;;;;;;;4953876;29;20241;-65
2023/04/07 00:03:05;;;;;;;18.83;16.92;;;;;;;;;;4952863;29;20242;-64
2023/04/07 00:05:30;;;;;;;19.42;17.42;;;;;;;;;;4953337;29;20293;-65
2023/04/07 00:07:56;;;;;;;21.15;19.05;;;;;;;;;;4953513;29;20758;-65
2023/04/07 00:10:21;;;;;;;21.17;18.90;;;;;;;;;;4952413;29;20222;-65
2023/04/07 00:12:46;;;;;;;21.02;18.95;;;;;;;;;;4953652;29;20223;-65
2023/04/07 00:15:12;;;;;;;21.77;18.00;;;;;;;;;;4953113;29;20583;-65
2023/04/07 00:17:37;;;;;;;20.42;18.33;;;;;;;;;;4952611;29;20218;-66
2023/04/07 00:20:03;;;;;;;23.67;21.17;;;;;;;;;;4952938;29;20277;-65
2023/04/07 00:22:28;;;;;;;23.33;20.20;;;;;;;;;;4953046;29;20222;-66
2023/04/07 00:24:53;;;;;;;30.02;24.92;;;;;;;;;;4952591;29;20218;-65
2023/04/07 00:27:19;;;;;;;26.10;23.08;;;;;;;;;;4952118;28;20217;-65
2023/04/07 00:29:45;;;;;;;31.15;26.50;;;;;;;;;;4956032;28;20206;-66
2023/04/07 00:32:10;;;;;;;30.13;25.70;;;;;;;;;;4970853;28;20795;-66
2023/04/07 00:34:36;;;;;;;31.15;26.33;;;;;;;;;;4971714;28;20214;-65
2023/04/07 00:37:01;;;;;;;34.92;29.33;;;;;;;;;;4970894;28;20226;-64
2023/04/07 00:39:26;;;;;;;33.95;28.52;;;;;;;;;;4971172;28;20598;-65
2023/04/07 00:41:51;;;;;;;35.72;29.40;;;;;;;;;;4971453;28;20221;-66
2023/04/07 00:44:17;;;;;;;40.85;31.67;;;;;;;;;;4971090;28;20685;-65
2023/04/07 00:46:42;;;;;;;39.13;30.17;;;;;;;;;;4969545;28;20333;-66
2023/04/07 00:49:07;;;;;;;38.20;29.73;;;;;;;;;;4958431;28;20225;-65
2023/04/07 00:51:33;;;;;;;38.97;29.35;;;;;;;;;;4971057;28;20226;-65
2023/04/07 00:53:58;;;;;;;39.10;30.50;;;;;;;;;;4970597;28;20226;-66
2023/04/07 00:56:24;;;;;;;36.60;28.90;;;;;;;;;;4970871;28;20229;-66
2023/04/07 00:58:49;;;;;;;36.17;28.10;;;;;;;;;;4971181;28;20220;-66
2023/04/07 01:01:15;;;;;;;34.45;24.55;;;;;;;;;;4969931;28;20297;-65
2023/04/07 01:03:45;;;;;;;32.28;24.75;;;;;;;;;;4971182;28;20224;-66
2023/04/07 01:06:11;;;;;;;34.75;25.75;;;;;;;;;;4939899;28;20208;-65
2023/04/07 01:08:49;;;;;;;35.60;24.90;;;;;;;;;;4933855;29;20218;-65
2023/04/07 01:11:17;;;;;;;32.10;23.02;;;;;;;;;;4934055;28;20233;-65
2023/04/07 01:13:45;;;;;;;36.00;23.23;;;;;;;;;;4950879;28;20292;-65
2023/04/07 01:16:11;;;;;;;30.80;22.25;;;;;;;;;;4951434;28;20301;-65
2023/04/07 01:18:36;;;;;;;30.88;22.48;;;;;;;;;;4934791;29;20265;-65
2023/04/07 01:21:03;;;;;;;31.55;22.90;;;;;;;;;;4950493;28;20206;-65
2023/04/07 01:23:35;;;;;;;30.55;22.63;;;;;;;;;;4951565;28;20263;-65
2023/04/07 01:26:11;;;;;;;29.10;20.45;;;;;;;;;;4951350;28;20218;-65
2023/04/07 01:28:40;;;;;;;34.28;22.67;;;;;;;;;;4933537;29;20757;-65
2023/04/07 01:31:06;;;;;;;37.10;23.75;;;;;;;;;;4950942;28;20234;-65
2023/04/07 01:33:31;;;;;;;33.53;23.75;;;;;;;;;;4897022;29;1110321;-65
2023/04/07 01:35:57;;;;;;;30.40;21.10;;;;;;;;;;4934358;29;20226;-65
2023/04/07 01:38:23;;;;;;;31.23;20.45;;;;;;;;;;4933490;29;20218;-65
2023/04/07 01:40:48;;;;;;;26.70;18.05;;;;;;;;;;4952389;29;20700;-65
2023/04/07 01:43:13;;;;;;;27.83;19.42;;;;;;;;;;4951102;29;20233;-65
2023/04/07 01:45:39;;;;;;;27.92;19.55;;;;;;;;;;4954387;29;20215;-65
2023/04/07 01:48:05;;;;;;;26.38;17.15;;;;;;;;;;4965884;28;20225;-65
2023/04/07 01:50:30;;;;;;;23.25;15.48;;;;;;;;;;4937825;29;20218;-65
2023/04/07 01:52:55;;;;;;;23.60;15.82;;;;;;;;;;4936883;29;20222;-65
2023/04/07 01:55:21;;;;;;;20.50;15.27;;;;;;;;;;4936798;29;20682;-65
2023/04/07 01:57:46;;;;;;;25.00;14.10;;;;;;;;;;4953379;29;20242;-65
2023/04/07 02:00:11;;;;;;;18.35;12.85;;;;;;;;;;4952677;28;20236;-65
2023/04/07 02:02:39;;;;;;;19.02;12.25;;;;;;;;;;4940919;28;20305;-65
2023/04/07 02:05:04;;;;;;;24.02;13.35;;;;;;;;;;4920184;28;20305;-65
2023/04/07 02:07:31;;;;;;;19.85;12.73;;;;;;;;;;4936613;28;20913;-65
2023/04/07 02:09:56;;;;;;;19.42;13.18;;;;;;;;;;4938414;28;20234;-65
2023/04/07 02:12:22;;;;;;;17.83;12.60;;;;;;;;;;4926710;28;20218;-66
2023/04/07 02:14:47;;;;;;;17.33;12.52;;;;;;;;;;4944382;28;20313;-65
2023/04/07 02:17:12;;;;;;;17.92;12.00;;;;;;;;;;4943024;28;20226;-65
2023/04/07 02:19:37;;;;;;;18.25;12.70;;;;;;;;;;4944119;28;20246;-65
2023/04/07 02:22:03;;;;;;;22.02;12.88;;;;;;;;;;4926658;28;20681;-64
2023/04/07 02:24:28;;;;;;;21.13;13.40;;;;;;;;;;4942745;28;20214;-65
2023/04/07 02:26:55;;;;;;;22.10;13.45;;;;;;;;;;4937149;28;20515;-65
2023/04/07 02:29:20;;;;;;;17.00;11.10;;;;;;;;;;4935898;28;20254;-64
2023/04/07 02:31:45;;;;;;;19.13;10.82;;;;;;;;;;4935800;28;20239;-64
2023/04/07 02:34:12;;;;;;;18.52;11.15;;;;;;;;;;4944025;28;20222;-64
2023/04/07 02:36:37;;;;;;;14.77;10.55;;;;;;;;;;4962782;28;20245;-65
2023/04/07 02:39:03;;;;;;;17.70;10.90;;;;;;;;;;4962013;28;20213;-65
2023/04/07 02:41:28;;;;;;;16.65;10.80;;;;;;;;;;4962841;28;20224;-65
2023/04/07 02:43:53;;;;;;;18.38;11.00;;;;;;;;;;4963061;28;20218;-65
2023/04/07 02:46:18;;;;;;;17.40;11.10;;;;;;;;;;4961963;28;20236;-65
2023/04/07 02:48:44;;;;;;;17.00;10.88;;;;;;;;;;4940065;28;20199;-65
2023/04/07 02:51:09;;;;;;;15.75;11.18;;;;;;;;;;4938516;28;20238;-64
2023/04/07 02:53:34;;;;;;;17.33;11.77;;;;;;;;;;4938395;28;20269;-65
2023/04/07 02:55:59;;;;;;;17.08;12.02;;;;;;;;;;4945553;28;20250;-65
2023/04/07 02:58:25;;;;;;;18.42;12.20;;;;;;;;;;4965631;28;20214;-65
2023/04/07 03:00:50;;;;;;;18.38;12.85;;;;;;;;;;4965807;28;20222;-65
2023/04/07 03:03:15;;;;;;;24.98;14.00;;;;;;;;;;4965139;28;20242;-65
2023/04/07 03:05:40;;;;;;;25.20;16.10;;;;;;;;;;4957001;28;20225;-65
2023/04/07 03:08:06;;;;;;;28.58;17.25;;;;;;;;;;4945665;28;20246;-65
2023/04/07 03:10:31;;;;;;;27.90;17.25;;;;;;;;;;4943744;28;20258;-65
2023/04/07 03:12:56;;;;;;;27.52;17.45;;;;;;;;;;4938613;28;20222;-65
2023/04/07 03:15:21;;;;;;;29.10;18.67;;;;;;;;;;4938421;28;20590;-65
2023/04/07 03:17:47;;;;;;;34.65;19.17;;;;;;;;;;4942340;28;20226;-65
2023/04/07 03:20:12;;;;;;;30.23;18.95;;;;;;;;;;4945822;28;20578;-64
2023/04/07 03:22:37;;;;;;;28.55;18.38;;;;;;;;;;4946861;28;20295;-65
2023/04/07 03:25:03;;;;;;;33.88;19.40;;;;;;;;;;4946531;28;20591;-65
2023/04/07 03:27:28;;;;;;;34.33;19.83;;;;;;;;;;4946184;28;20207;-65
2023/04/07 03:29:53;;;;;;;34.92;20.77;;;;;;;;;;4947320;28;20225;-65
2023/04/07 03:32:19;;;;;;;37.33;19.92;;;;;;;;;;4944526;28;20386;-65
2023/04/07 03:34:44;;;;;;;32.65;20.30;;;;;;;;;;4955523;28;20305;-65
2023/04/07 03:37:09;;;;;;;34.00;19.70;;;;;;;;;;4956173;28;20771;-64
2023/04/07 03:39:36;;;;;;;30.15;19.23;;;;;;;;;;4956357;28;20242;-65
2023/04/07 03:42:01;;;;;;;32.85;18.85;;;;;;;;;;4962334;28;20230;-64
2023/04/07 03:44:27;;;;;;;32.50;20.05;;;;;;;;;;4963644;28;20214;-65
2023/04/07 03:46:52;;;;;;;28.30;17.88;;;;;;;;;;4961662;28;20226;-65
2023/04/07 03:49:17;;;;;;;25.40;15.52;;;;;;;;;;4942901;28;20242;-64
2023/04/07 03:51:43;;;;;;;23.88;14.05;;;;;;;;;;4944635;28;20337;-65
2023/04/07 03:54:08;;;;;;;26.08;15.35;;;;;;;;;;4943995;28;20672;-65
2023/04/07 03:56:34;;;;;;;24.25;12.57;;;;;;;;;;4938744;28;20257;-65
2023/04/07 03:58:59;;;;;;;17.38;10.57;;;;;;;;;;4937098;28;20222;-65
2023/04/07 04:01:25;;;;;;;18.77;10.63;;;;;;;;;;4917880;28;20257;-65
2023/04/07 04:03:50;;;;;;;19.75;11.38;;;;;;;;;;4941327;28;20646;-65
2023/04/07 04:06:15;;;;;;;16.90;10.80;;;;;;;;;;4949039;28;20211;-65
2023/04/07 04:08:41;;;;;;;16.13;9.40;;;;;;;;;;4944387;28;20218;-65
2023/04/07 04:11:06;;;;;;;15.60;9.23;;;;;;;;;;4942328;28;20230;-65
2023/04/07 04:13:31;;;;;;;18.52;9.05;;;;;;;;;;4944438;28;20226;-65
2023/04/07 04:15:56;;;;;;;15.93;8.70;;;;;;;;;;4944211;28;20214;-65
2023/04/07 04:18:22;;;;;;;15.32;8.38;;;;;;;;;;4958946;28;20524;-65
2023/04/07 04:20:47;;;;;;;13.27;7.82;;;;;;;;;;4940660;28;20218;-65
2023/04/07 04:23:13;;;;;;;14.00;8.07;;;;;;;;;;4936157;28;20207;-64
2023/04/07 04:25:39;;;;;;;14.27;7.82;;;;;;;;;;4938139;28;20214;-66
2023/04/07 04:28:05;;;;;;;15.30;7.80;;;;;;;;;;4943203;28;20222;-64
2023/04/07 04:30:30;;;;;;;12.70;6.93;;;;;;;;;;4943316;28;20219;-65
2023/04/07 04:32:55;;;;;;;14.55;6.97;;;;;;;;;;4943818;28;21107;-65
2023/04/07 04:35:21;;;;;;;11.73;7.72;;;;;;;;;;4943096;28;20217;-65
2023/04/07 04:37:46;;;;;;;15.23;7.97;;;;;;;;;;4942883;28;20214;-64
2023/04/07 04:40:11;;;;;;;13.15;6.68;;;;;;;;;;4942574;28;20225;-67
2023/04/07 04:42:37;;;;;;;14.23;7.63;;;;;;;;;;4936148;28;20238;-64
2023/04/07 04:45:02;;;;;;;13.15;7.15;;;;;;;;;;4935001;28;20226;-64
2023/04/07 04:47:27;;;;;;;13.75;8.27;;;;;;;;;;4936750;28;20218;-64
2023/04/07 04:49:53;;;;;;;18.40;7.85;;;;;;;;;;4949435;28;20776;-64
2023/04/07 04:52:18;;;;;;;16.55;8.43;;;;;;;;;;4942293;28;20678;-64
2023/04/07 04:54:43;;;;;;;15.02;8.30;;;;;;;;;;4943443;28;20222;-64
2023/04/07 04:57:09;;;;;;;17.33;9.13;;;;;;;;;;4942808;28;20214;-64
2023/04/07 04:59:34;;;;;;;20.42;9.30;;;;;;;;;;4942573;28;20301;-64
2023/04/07 05:01:59;;;;;;;21.73;9.55;;;;;;;;;;4943437;28;20227;-64
2023/04/07 05:04:25;;;;;;;22.60;10.75;;;;;;;;;;4937130;28;20226;-65
2023/04/07 05:06:50;;;;;;;18.33;10.20;;;;;;;;;;4935354;28;20215;-65
2023/04/07 05:09:16;;;;;;;16.88;10.20;;;;;;;;;;4935405;28;20747;-64
2023/04/07 05:11:41;;;;;;;19.77;10.68;;;;;;;;;;4941034;28;20234;-64
2023/04/07 05:14:06;;;;;;;22.60;10.38;;;;;;;;;;4941634;28;20305;-64
2023/04/07 05:16:32;;;;;;;20.23;11.27;;;;;;;;;;4943391;28;20698;-65
2023/04/07 05:18:57;;;;;;;18.00;10.73;;;;;;;;;;4944626;28;20221;-64
2023/04/07 05:21:22;;;;;;;21.92;10.48;;;;;;;;;;4960768;28;20217;-64
2023/04/07 05:23:47;;;;;;;17.80;9.80;;;;;;;;;;4961697;28;20277;-64
2023/04/07 05:26:13;;;;;;;19.55;10.77;;;;;;;;;;4966600;28;20245;-64
2023/04/07 05:28:38;;;;;;;18.55;10.38;;;;;;;;;;4953172;28;20210;-68
2023/04/07 05:31:03;;;;;;;23.48;11.70;;;;;;;;;;4951476;29;20598;-64
2023/04/07 05:33:29;;;;;;;23.30;12.40;;;;;;;;;;4951888;29;20531;-65
2023/04/07 05:35:54;;;;;;;19.65;11.45;;;;;;;;;;4951413;29;20272;-65
2023/04/07 05:38:20;;;;;;;23.50;11.82;;;;;;;;;;4951969;28;20229;-65
2023/04/07 05:40:46;;;;;;;24.37;13.87;;;;;;;;;;4958314;28;20913;-66
2023/04/07 05:43:11;;;;;;;19.67;11.65;;;;;;;;;;4953987;28;20202;-67
2023/04/07 05:45:36;;;;;;;22.45;12.05;;;;;;;;;;4958235;28;20203;-66
2023/04/07 05:48:02;;;;;;;22.20;11.73;;;;;;;;;;4952807;28;20686;-65
2023/04/07 05:50:27;;;;;;;20.10;11.52;;;;;;;;;;4956934;28;20309;-66
2023/04/07 05:52:52;;;;;;;15.30;10.93;;;;;;;;;;4960456;28;20589;-66
2023/04/07 05:55:17;;;;;;;24.35;11.90;;;;;;;;;;4960972;28;20206;-65
2023/04/07 05:57:43;;;;;;;22.70;12.80;;;;;;;;;;4960030;28;20205;-68
2023/04/07 06:00:09;;;;;;;26.83;12.55;;;;;;;;;;4966393;28;20221;-65
2023/04/07 06:02:35;;;;;;;19.95;12.18;;;;;;;;;;4970452;28;20563;-67
2023/04/07 06:05:00;;;;;;;23.15;12.23;;;;;;;;;;4969329;28;20208;-65
2023/04/07 06:07:25;;;;;;;23.20;12.75;;;;;;;;;;4959916;28;20245;-64
2023/04/07 06:09:50;;;;;;;19.10;11.60;;;;;;;;;;4960488;28;20222;-64
2023/04/07 06:12:16;;;;;;;22.35;12.40;;;;;;;;;;4957274;28;20217;-64
2023/04/07 06:14:41;;;;;;;22.10;12.30;;;;;;;;;;4957069;28;20233;-64
2023/04/07 06:17:07;;;;;;;17.17;12.30;;;;;;;;;;4960897;28;20212;-64
2023/04/07 06:19:32;;;;;;;21.25;12.25;;;;;;;;;;4959408;28;20226;-64
2023/04/07 06:21:57;;;;;;;19.65;11.88;;;;;;;;;;4960646;28;20281;-64
2023/04/07 06:24:24;;;;;;;21.83;12.70;;;;;;;;;;4959684;28;20236;-64
2023/04/07 06:26:49;;;;;;;21.52;12.80;;;;;;;;;;4966050;28;20221;-64
2023/04/07 06:29:15;;;;;;;21.30;11.98;;;;;;;;;;4963878;28;20223;-65
2023/04/07 06:31:40;;;;;;;23.52;13.15;;;;;;;;;;4965086;28;20320;-64
2023/04/07 06:34:05;;;;;;;18.67;12.57;;;;;;;;;;4964896;28;20214;-64
2023/04/07 06:36:31;;;;;;;19.77;12.65;;;;;;;;;;4967593;28;20214;-63
2023/04/07 06:38:57;;;;;;;20.85;12.88;;;;;;;;;;4963330;28;20669;-64
2023/04/07 06:41:22;;;;;;;23.25;12.30;;;;;;;;;;4963692;28;20242;-64
2023/04/07 06:43:48;;;;;;;19.17;11.30;;;;;;;;;;4970650;28;20222;-66
2023/04/07 06:46:13;;;;;;;20.55;12.32;;;;;;;;;;4954508;28;20748;-66
2023/04/07 06:48:38;;;;;;;22.23;12.20;;;;;;;;;;4968784;28;20222;-66
2023/04/07 06:51:04;;;;;;;18.38;11.40;;;;;;;;;;4953744;29;20234;-65
2023/04/07 06:53:29;;;;;;;22.13;11.88;;;;;;;;;;4956571;28;20250;-65
2023/04/07 06:56:02;;;;;;;19.10;11.48;;;;;;;;;;4955205;29;20486;-65
2023/04/07 06:58:27;;;;;;;19.00;12.20;;;;;;;;;;4955306;28;20214;-65
2023/04/07 07:00:53;;;;;;;16.88;9.70;;;;;;;;;;4968452;28;20352;-66
2023/04/07 07:03:18;;;;;;;17.52;10.70;;;;;;;;;;4973622;28;20228;-69
2023/04/07 07:05:43;;;;;;;17.25;11.10;;;;;;;;;;4973475;28;20222;-69
2023/04/07 07:08:09;;;;;;;16.10;10.05;;;;;;;;;;4973088;28;20222;-69
2023/04/07 07:10:34;;;;;;;16.20;10.30;;;;;;;;;;4973786;28;20569;-69
2023/04/07 07:12:59;;;;;;;16.40;9.52;;;;;;;;;;4972961;28;20221;-69
2023/04/07 07:15:25;;;;;;;18.80;10.05;;;;;;;;;;4973343;28;20349;-67
2023/04/07 07:17:50;;;;;;;15.38;10.07;;;;;;;;;;4973844;28;20241;-67
2023/04/07 07:20:15;;;;;;;17.02;9.70;;;;;;;;;;4972705;28;20268;-68
2023/04/07 07:22:41;;;;;;;6.63;2.63;;;;;;;;;;4973491;28;20229;-68
2023/04/07 07:25:06;;;;;;;4.70;2.60;;;;;;;;;;4973405;28;20205;-68
2023/04/07 07:27:31;;;;;;;6.50;3.25;;;;;;;;;;4972933;28;20284;-66
2023/04/07 07:29:56;;;;;;;11.27;3.97;;;;;;;;;;4968723;28;20207;-65
2023/04/07 07:32:22;;;;;;;7.38;3.95;;;;;;;;;;4953572;29;20321;-66
2023/04/07 07:34:47;;;;;;;7.30;3.70;;;;;;;;;;4953706;29;20229;-69
2023/04/07 07:37:12;;;;;;;7.03;3.70;;;;;;;;;;4957789;28;20203;-65
2023/04/07 07:39:38;;;;;;;8.63;4.72;;;;;;;;;;4958761;28;20301;-66
2023/04/07 07:42:03;;;;;;;10.75;5.38;;;;;;;;;;4955341;28;20305;-65
2023/04/07 07:44:28;;;;;;;9.60;5.53;;;;;;;;;;4953406;28;20238;-67
2023/04/07 07:46:54;;;;;;;9.73;5.43;;;;;;;;;;4959119;28;20274;-69
2023/04/07 07:49:20;;;;;;;9.88;4.93;;;;;;;;;;4963835;28;20249;-69
2023/04/07 07:51:45;;;;;;;11.32;5.45;;;;;;;;;;4963875;28;20225;-69
2023/04/07 07:54:11;;;;;;;9.77;5.35;;;;;;;;;;4961165;28;20218;-69
2023/04/07 07:56:36;;;;;;;7.45;4.72;;;;;;;;;;4959916;28;20254;-69
2023/04/07 07:59:02;;;;;;;8.35;4.60;;;;;;;;;;4952816;29;20215;-68
2023/04/07 08:01:27;;;;;;;7.03;4.28;;;;;;;;;;4952858;29;20210;-69
2023/04/07 08:03:53;;;;;;;7.35;4.57;;;;;;;;;;4963168;28;20218;-69
2023/04/07 08:06:18;;;;;;;7.85;4.40;;;;;;;;;;4972162;28;20324;-69
2023/04/07 08:08:43;;;;;;;6.15;1.88;;;;;;;;;;4972265;28;20776;-69
2023/04/07 08:11:08;;;;;;;8.75;4.63;;;;;;;;;;4972094;28;20238;-69
2023/04/07 08:13:34;;;;;;;9.40;4.82;;;;;;;;;;4972525;28;20218;-69
2023/04/07 08:15:59;;;;;;;7.57;4.50;;;;;;;;;;4971813;28;20218;-70
2023/04/07 08:18:24;;;;;;;6.25;4.00;;;;;;;;;;4959424;28;20276;-69
2023/04/07 08:20:50;;;;;;;7.07;4.05;;;;;;;;;;4953219;29;20214;-69
2023/04/07 08:23:15;;;;;;;6.00;4.00;;;;;;;;;;4950124;28;20864;-69
2023/04/07 08:25:41;;;;;;;8.75;4.43;;;;;;;;;;4953413;29;20222;-69
2023/04/07 08:28:06;;;;;;;6.70;4.22;;;;;;;;;;4952564;29;20236;-69
2023/04/07 08:30:31;;;;;;;8.05;4.25;;;;;;;;;;4952212;29;20238;-69
2023/04/07 08:32:57;;;;;;;8.27;4.43;;;;;;;;;;4952661;29;20595;-69
2023/04/07 08:35:22;;;;;;;8.40;5.25;;;;;;;;;;4952671;29;20218;-69
2023/04/07 08:37:48;;;;;;;8.93;5.00;;;;;;;;;;4960876;28;20214;-69
2023/04/07 08:40:13;;;;;;;8.10;4.57;;;;;;;;;;4969769;28;20249;-69
2023/04/07 08:42:39;;;;;;;5.57;3.60;;;;;;;;;;4971926;28;20280;-69
2023/04/07 08:45:05;;;;;;;5.30;3.60;;;;;;;;;;4968687;28;20272;-69
2023/04/07 08:47:32;;;;;;;5.78;3.17;;;;;;;;;;4962151;28;20654;-65
2023/04/07 08:50:00;;;;;;;4.88;3.17;;;;;;;;;;4952810;28;20265;-70
2023/04/07 08:52:27;;;;;;;6.10;3.40;;;;;;;;;;4951737;28;20202;-70
2023/04/07 08:54:53;;;;;;;4.53;3.35;;;;;;;;;;4936547;29;20222;-70
2023/04/07 08:57:18;;;;;;;7.85;3.42;;;;;;;;;;4951970;29;20210;-70
2023/04/07 08:59:46;;;;;;;5.10;3.28;;;;;;;;;;4951980;29;20257;-70
2023/04/07 09:02:11;;;;;;;6.90;3.30;;;;;;;;;;4935233;29;20252;-70
2023/04/07 09:04:37;;;;;;;7.32;3.40;;;;;;;;;;4952483;28;20211;-70
2023/04/07 09:07:02;;;;;;;5.57;3.08;;;;;;;;;;4959298;28;20210;-70
2023/04/07 09:09:28;;;;;;;6.72;3.70;;;;;;;;;;4952541;28;20285;-70
2023/04/07 09:11:53;;;;;;;7.40;3.47;;;;;;;;;;4951732;28;20261;-70
2023/04/07 09:14:19;;;;;;;5.68;4.05;;;;;;;;;;4951682;28;20218;-70
2023/04/07 09:16:45;;;;;;;5.70;3.30;;;;;;;;;;4935294;29;20214;-70
2023/04/07 09:19:10;;;;;;;5.70;3.50;;;;;;;;;;4956526;28;20549;-69
2023/04/07 09:21:48;;;;;;;5.45;3.08;;;;;;;;;;4960214;28;20214;-70
2023/04/07 09:24:21;;;;;;;7.45;3.55;;;;;;;;;;4951973;29;20225;-69
2023/04/07 09:26:47;;;;;;;6.18;3.60;;;;;;;;;;4951768;29;20210;-70
2023/04/07 09:29:13;;;;;;;6.75;3.70;;;;;;;;;;4951584;29;20226;-69
2023/04/07 09:31:47;;;;;;;7.35;3.33;;;;;;;;;;4934221;28;20215;-69
2023/04/07 09:34:22;;;;;;;6.53;3.15;;;;;;;;;;4955886;28;20686;-69
2023/04/07 09:36:47;;;;;;;6.10;3.40;;;;;;;;;;4952467;28;20493;-72
2023/04/07 09:39:12;;;;;;;6.20;3.30;;;;;;;;;;4970820;28;20418;-69
2023/04/07 09:41:38;;;;;;;7.20;3.00;;;;;;;;;;4966367;28;20221;-67
2023/04/07 09:44:03;;;;;;;4.68;2.50;;;;;;;;;;4954254;28;20222;-69
2023/04/07 09:46:28;;;;;;;5.22;2.80;;;;;;;;;;4952113;29;20222;-69
2023/04/07 09:49:00;;;;;;;7.30;3.25;;;;;;;;;;4952572;28;20578;-68
2023/04/07 09:51:26;;;;;;;25.95;20.05;;;;;;;;;;4969940;28;20630;-68
2023/04/07 09:53:52;;;;;;;16.13;14.27;;;;;;;;;;4961539;28;20737;-68
2023/04/07 09:56:21;;;;;;;12.63;11.07;;;;;;;;;;4951564;29;20222;-68
2023/04/07 09:58:46;;;;;;;6.78;3.50;;;;;;;;;;4949915;28;20214;-69
2023/04/07 10:01:11;;;;;;;4.88;2.90;;;;;;;;;;4953939;28;21060;-68
2023/04/07 10:03:37;;;;;;;6.60;2.70;;;;;;;;;;4955752;28;20214;-69
2023/04/07 10:06:03;;;;;;;4.93;2.80;;;;;;;;;;4955536;28;20214;-68
2023/04/07 10:08:29;;;;;;;5.22;3.25;;;;;;;;;;4955109;28;20314;-68
2023/04/07 10:10:54;;;;;;;5.32;2.90;;;;;;;;;;4954533;28;20229;-69
2023/04/07 10:13:20;;;;;;;6.25;2.95;;;;;;;;;;4954992;29;20227;-68
2023/04/07 10:15:46;;;;;;;5.38;3.28;;;;;;;;;;4955138;29;20579;-68
2023/04/07 10:18:11;;;;;;;7.63;3.92;;;;;;;;;;4938052;29;20682;-68
2023/04/07 10:20:38;;;;;;;7.45;3.85;;;;;;;;;;4938269;29;20218;-69
2023/04/07 10:23:05;;;;;;;7.68;4.25;;;;;;;;;;4951427;28;20265;-68
2023/04/07 10:25:31;;;;;;;10.65;4.90;;;;;;;;;;4936995;29;20677;-68
2023/04/07 10:27:58;;;;;;;10.23;4.90;;;;;;;;;;4954740;28;20226;-69
2023/04/07 10:30:25;;;;;;;11.60;4.50;;;;;;;;;;4933325;28;20238;-69
2023/04/07 10:32:52;;;;;;;11.15;5.13;;;;;;;;;;4953748;28;21134;-68
2023/04/07 10:35:18;;;;;;;12.73;4.75;;;;;;;;;;4933231;28;20318;-68
2023/04/07 10:38:10;;;;;;;8.73;4.60;;;;;;;;;;4954234;28;20262;-68
2023/04/07 10:40:36;;;;;;;13.35;5.13;;;;;;;;;;4974234;28;20214;-68
2023/04/07 10:43:01;;;;;;;12.00;5.30;;;;;;;;;;4973784;28;20214;-67
2023/04/07 10:45:45;;;;;;;14.85;6.78;;;;;;;;;;4973718;28;20214;-68
2023/04/07 10:48:11;;;;;;;10.00;5.00;;;;;;;;;;4960931;28;20354;-68
2023/04/07 10:50:36;;;;;;;11.10;5.22;;;;;;;;;;4972704;28;20689;-69
2023/04/07 10:53:08;;;;;;;12.60;5.65;;;;;;;;;;4973663;28;20210;-67
2023/04/07 10:55:34;;;;;;;9.18;4.15;;;;;;;;;;4974325;28;20305;-69
2023/04/07 10:58:14;;;;;;;11.20;4.70;;;;;;;;;;4973202;28;20309;-69
2023/04/07 11:00:39;;;;;;;8.30;3.72;;;;;;;;;;4973857;28;20308;-67
2023/04/07 11:03:13;;;;;;;17.58;14.40;;;;;;;;;;4973555;28;20612;-67
2023/04/07 11:05:39;;;;;;;7.93;4.10;;;;;;;;;;4973109;28;20261;-67
2023/04/07 11:08:06;;;;;;;8.43;4.15;;;;;;;;;;4973570;28;20222;-67
2023/04/07 11:10:32;;;;;;;11.15;4.13;;;;;;;;;;4973440;28;20683;-68
2023/04/07 11:12:58;;;;;;;6.03;3.30;;;;;;;;;;4955741;28;20217;-67
2023/04/07 11:15:24;;;;;;;8.18;3.85;;;;;;;;;;4973462;28;20218;-68
2023/04/07 11:18:07;;;;;;;7.57;3.25;;;;;;;;;;4973716;28;20210;-67
2023/04/07 11:20:41;;;;;;;7.07;4.03;;;;;;;;;;4972632;28;20789;-68
2023/04/07 11:23:07;;;;;;;12.77;7.90;;;;;;;;;;4973252;28;20228;-67
2023/04/07 11:25:33;;;;;;;9.50;3.47;;;;;;;;;;4973165;28;20221;-67
2023/04/07 11:27:58;;;;;;;5.97;3.15;;;;;;;;;;4973352;28;20216;-67
2023/04/07 11:30:24;;;;;;;6.68;3.00;;;;;;;;;;4964767;28;20226;-67
2023/04/07 11:32:49;;;;;;;8.13;3.40;;;;;;;;;;4953404;29;20233;-67
2023/04/07 11:35:15;;;;;;;7.63;3.17;;;;;;;;;;4953482;29;20250;-67
2023/04/07 11:37:41;;;;;;;7.88;4.50;;;;;;;;;;4951834;28;20214;-67
2023/04/07 11:40:07;;;;;;;7.40;5.95;;;;;;;;;;4952958;29;20211;-66
2023/04/07 11:42:33;;;;;;;5.72;2.28;;;;;;;;;;4953827;29;20321;-67
2023/04/07 11:44:58;;;;;;;5.50;3.13;;;;;;;;;;4954100;29;20222;-67
2023/04/07 11:47:36;;;;;;;4.63;2.22;;;;;;;;;;4942208;28;20214;-66
2023/04/07 11:50:01;;;;;;;5.05;2.65;;;;;;;;;;4958778;28;20918;-65
2023/04/07 11:52:26;;;;;;;5.50;2.70;;;;;;;;;;4953846;29;20226;-67
2023/04/07 11:54:52;;;;;;;5.00;3.08;;;;;;;;;;4954002;28;20279;-67
2023/04/07 11:57:24;;;;;;;4.85;3.10;;;;;;;;;;4961296;28;20214;-67
2023/04/07 11:59:50;;;;;;;3.95;2.47;;;;;;;;;;4953855;28;20272;-67
2023/04/07 12:02:31;;;;;;;7.28;3.28;;;;;;;;;;4940670;28;20205;-70
2023/04/07 12:04:56;;;;;;;5.05;2.95;;;;;;;;;;4953675;28;20215;-67
2023/04/07 12:07:22;;;;;;;5.97;3.53;;;;;;;;;;4951920;28;20270;-67
2023/04/07 12:09:47;;;;;;;5.07;3.28;;;;;;;;;;4952854;28;20584;-67
2023/04/07 12:12:12;;;;;;;5.72;3.42;;;;;;;;;;4952759;28;20223;-67
2023/04/07 12:14:38;;;;;;;7.18;3.70;;;;;;;;;;4953008;28;20305;-67
2023/04/07 12:17:03;;;;;;;9.43;4.35;;;;;;;;;;4953101;28;20222;-67
2023/04/07 12:19:29;;;;;;;8.30;4.25;;;;;;;;;;4953485;29;20286;-68
2023/04/07 12:21:54;;;;;;;8.18;4.57;;;;;;;;;;4952022;28;20345;-69
2023/04/07 12:24:20;;;;;;;9.27;5.00;;;;;;;;;;4952615;29;20214;-70
2023/04/07 12:26:45;;;;;;;8.57;4.55;;;;;;;;;;4953117;29;20679;-69
2023/04/07 12:29:11;;;;;;;10.68;5.32;;;;;;;;;;4952164;29;20222;-68
2023/04/07 12:31:36;;;;;;;8.00;4.65;;;;;;;;;;4952908;28;20359;-69
2023/04/07 12:34:01;;;;;;;7.22;4.95;;;;;;;;;;4952600;29;20235;-69
2023/04/07 12:36:28;;;;;;;8.48;4.65;;;;;;;;;;4954688;28;20550;-69
2023/04/07 12:38:53;;;;;;;8.95;5.00;;;;;;;;;;4954943;28;20210;-69
2023/04/07 12:41:18;;;;;;;8.10;4.97;;;;;;;;;;4935103;29;20269;-69
2023/04/07 12:43:44;;;;;;;7.70;4.43;;;;;;;;;;4952396;29;20285;-69
2023/04/07 12:46:09;;;;;;;8.13;5.00;;;;;;;;;;4952662;29;20814;-68
2023/04/07 12:48:34;;;;;;;7.90;4.30;;;;;;;;;;4966178;28;20218;-69
2023/04/07 12:51:00;;;;;;;6.85;4.22;;;;;;;;;;4949815;28;20223;-71
2023/04/07 12:53:26;;;;;;;8.05;4.45;;;;;;;;;;4952011;29;20215;-69
2023/04/07 12:55:51;;;;;;;6.95;3.90;;;;;;;;;;4952128;29;20628;-69
2023/04/07 12:58:17;;;;;;;6.38;3.50;;;;;;;;;;4951430;29;20207;-68
2023/04/07 13:00:42;;;;;;;18.70;10.20;;;;;;;;;;4952265;28;20225;-68
2023/04/07 13:03:08;;;;;;;10.43;7.65;;;;;;;;;;4951978;29;20603;-66
2023/04/07 13:05:34;;;;;;;9.55;6.20;;;;;;;;;;4954980;28;20749;-69
2023/04/07 13:07:59;;;;;;;8.30;5.32;;;;;;;;;;4962155;28;20217;-69
2023/04/07 13:10:25;;;;;;;7.43;4.75;;;;;;;;;;4951514;29;20223;-70
2023/04/07 13:12:50;;;;;;;7.68;5.35;;;;;;;;;;4951324;29;20218;-66
2023/04/07 13:15:15;;;;;;;8.25;4.65;;;;;;;;;;4951586;28;20222;-67
2023/04/07 13:17:41;;;;;;;7.82;3.60;;;;;;;;;;4952161;29;20206;-67
2023/04/07 13:20:06;;;;;;;6.10;3.78;;;;;;;;;;4951116;29;20214;-65
2023/04/07 13:22:31;;;;;;;7.65;5.25;;;;;;;;;;4951921;29;20214;-65
2023/04/07 13:24:57;;;;;;;7.38;4.53;;;;;;;;;;4951429;29;20277;-66
2023/04/07 13:27:22;;;;;;;7.95;4.18;;;;;;;;;;4951250;29;20252;-66
2023/04/07 13:29:47;;;;;;;8.80;4.68;;;;;;;;;;4952089;29;20203;-66
2023/04/07 13:32:14;;;;;;;8.70;5.05;;;;;;;;;;4950297;28;20233;-65
2023/04/07 13:34:39;;;;;;;6.45;4.00;;;;;;;;;;4951962;29;20226;-65
2023/04/07 13:37:05;;;;;;;8.82;6.50;;;;;;;;;;4955647;28;20210;-65
2023/04/07 13:39:30;;;;;;;9.05;6.15;;;;;;;;;;4933853;29;20207;-66
2023/04/07 13:41:56;;;;;;;11.82;8.50;;;;;;;;;;4951663;29;20210;-65
2023/04/07 13:44:22;;;;;;;9.65;6.82;;;;;;;;;;4951353;29;20674;-65
2023/04/07 13:46:47;;;;;;;10.82;4.03;;;;;;;;;;4952929;28;20249;-65
2023/04/07 13:49:13;;;;;;;9.90;4.32;;;;;;;;;;4963311;28;20258;-65
2023/04/07 13:51:39;;;;;;;11.88;7.32;;;;;;;;;;4949411;28;20240;-65
2023/04/07 13:54:05;;;;;;;9.02;5.90;;;;;;;;;;4950415;29;20301;-65
2023/04/07 13:56:30;;;;;;;10.82;5.32;;;;;;;;;;4957319;28;20218;-65
2023/04/07 13:58:55;;;;;;;11.30;4.45;;;;;;;;;;4953564;28;20837;-66
2023/04/07 14:01:21;;;;;;;10.27;5.03;;;;;;;;;;4955566;28;20221;-66
2023/04/07 14:03:46;;;;;;;8.95;4.78;;;;;;;;;;4958747;28;20221;-65
2023/04/07 14:06:11;;;;;;;8.05;4.30;;;;;;;;;;4962280;28;20222;-65
2023/04/07 14:08:37;;;;;;;10.73;4.90;;;;;;;;;;4964004;28;20256;-66
2023/04/07 14:11:02;;;;;;;10.82;4.70;;;;;;;;;;4964131;28;20233;-65
2023/04/07 14:13:27;;;;;;;11.02;4.97;;;;;;;;;;4959544;28;20217;-68
2023/04/07 14:15:52;;;;;;;12.25;5.40;;;;;;;;;;4950315;28;20333;-66
2023/04/07 14:18:18;;;;;;;28.90;15.48;;;;;;;;;;4946253;28;20203;-66
2023/04/07 14:20:43;;;;;;;9.63;4.70;;;;;;;;;;4943201;28;20273;-66